Time;durP1;ratioP1;P1;durP2;ratioP2;P2;SDS_P1;SDS_P2;PMS_P1;PMS_P2;Temp;Humidity;BMP_temperature;BMP_pressure;BME280_temperature;BME280_humidity;BME280_pressure;Samples;Min_cycle;Max_cycle;Signal;HPM_P1;HPM_P2
2023/09/10 00:00:34;;;;;;;19.63;10.60;;;21.40;99.90;;;;;;5082194;28;20040;-78
2023/09/10 00:03:01;;;;;;;26.00;10.35;;;21.30;99.90;;;;;;5091025;28;20064;-78
2023/09/10 00:05:28;;;;;;;17.02;9.35;;;21.20;99.90;;;;;;5094049;28;20051;-80
2023/09/10 00:07:55;;;;;;;18.50;9.68;;;21.20;99.90;;;;;;5091877;28;20513;-81
2023/09/10 00:10:21;;;;;;;18.38;10.05;;;21.20;99.90;;;;;;5081885;28;20074;-80
2023/09/10 00:12:48;;;;;;;16.38;9.35;;;21.20;99.90;;;;;;5094759;28;20036;-79
2023/09/10 00:15:15;;;;;;;19.65;9.25;;;21.10;99.90;;;;;;5093943;28;20036;-82
2023/09/10 00:17:41;;;;;;;22.45;10.75;;;21.10;99.90;;;;;;5094866;28;20405;-80
2023/09/10 00:20:10;;;;;;;20.45;10.35;;;21.10;99.90;;;;;;5077543;28;20063;-81
2023/09/10 00:22:42;;;;;;;17.90;9.93;;;21.00;99.90;;;;;;5084600;28;20070;-80
2023/09/10 00:25:09;;;;;;;24.45;9.57;;;21.00;99.90;;;;;;5087713;28;20074;-79
2023/09/10 00:27:37;;;;;;;20.42;10.88;;;21.00;99.90;;;;;;5082989;28;20071;-80
2023/09/10 00:30:03;;;;;;;20.67;10.82;;;20.90;99.90;;;;;;5094766;28;20405;-80
2023/09/10 00:32:30;;;;;;;17.85;10.05;;;20.90;99.90;;;;;;5094562;28;20048;-79
2023/09/10 00:34:57;;;;;;;20.38;10.32;;;20.90;99.90;;;;;;5093156;28;20123;-79
2023/09/10 00:37:26;;;;;;;21.23;11.05;;;20.80;99.90;;;;;;5080665;28;20036;-81
2023/09/10 00:39:53;;;;;;;18.58;10.50;;;20.80;99.90;;;;;;5083597;28;20464;-80
2023/09/10 00:42:19;;;;;;;21.95;11.40;;;20.70;99.90;;;;;;5073357;28;20485;-78
2023/09/10 00:44:46;;;;;;;17.08;9.75;;;20.70;99.90;;;;;;5086536;28;20082;-79
2023/09/10 00:47:14;;;;;;;18.90;11.15;;;20.70;99.90;;;;;;5076465;28;20086;-79
2023/09/10 00:49:41;;;;;;;21.38;9.45;;;20.70;99.90;;;;;;5094542;28;20068;-79
2023/09/10 00:52:08;;;;;;;19.13;9.77;;;20.70;99.90;;;;;;5080667;28;20463;-81
2023/09/10 00:54:34;;;;;;;20.50;9.10;;;20.60;99.90;;;;;;5091070;28;20052;-80
2023/09/10 00:57:01;;;;;;;18.60;9.45;;;20.60;99.90;;;;;;5083904;28;20065;-78
2023/09/10 00:59:28;;;;;;;20.95;11.00;;;20.60;99.90;;;;;;5088211;28;20063;-80
2023/09/10 01:01:55;;;;;;;17.95;9.93;;;20.60;99.90;;;;;;5082446;28;20037;-81
2023/09/10 01:04:23;;;;;;;18.70;10.07;;;20.60;99.90;;;;;;5093139;28;20471;-82
2023/09/10 01:06:50;;;;;;;19.60;10.05;;;20.60;99.90;;;;;;5076137;28;20083;-82
2023/09/10 01:09:16;;;;;;;21.95;10.45;;;20.60;99.90;;;;;;5079946;28;20059;-82
2023/09/10 01:11:43;;;;;;;26.52;10.02;;;20.50;99.90;;;;;;5092708;28;20139;-82
2023/09/10 01:14:10;;;;;;;17.08;10.20;;;20.50;99.90;;;;;;5082091;28;20052;-79
2023/09/10 01:16:37;;;;;;;22.27;10.23;;;20.50;99.90;;;;;;5092311;28;20050;-80
2023/09/10 01:19:04;;;;;;;22.17;10.95;;;20.40;99.90;;;;;;5087166;28;20048;-80
2023/09/10 01:21:31;;;;;;;18.33;9.98;;;20.40;99.90;;;;;;5081740;28;20446;-80
2023/09/10 01:23:58;;;;;;;19.10;10.18;;;20.40;99.90;;;;;;5097890;28;20033;-79
2023/09/10 01:26:24;;;;;;;19.83;9.57;;;20.30;99.90;;;;;;5093715;28;20040;-80
2023/09/10 01:28:52;;;;;;;19.15;9.88;;;20.20;99.90;;;;;;5089762;28;20044;-80
2023/09/10 01:31:19;;;;;;;18.48;9.85;;;20.20;99.90;;;;;;5076464;28;20044;-80
2023/09/10 01:33:46;;;;;;;19.05;10.27;;;20.10;99.90;;;;;;5090631;28;20048;-80
2023/09/10 01:36:12;;;;;;;19.75;10.60;;;20.10;99.90;;;;;;5078310;28;20048;-79
2023/09/10 01:38:40;;;;;;;16.27;9.75;;;20.00;99.90;;;;;;5090882;28;20113;-81
2023/09/10 01:41:07;;;;;;;18.02;10.00;;;20.00;99.90;;;;;;5086105;28;20084;-80
2023/09/10 01:43:34;;;;;;;17.10;9.20;;;20.00;99.90;;;;;;5097337;28;20036;-79
2023/09/10 01:46:01;;;;;;;19.45;9.48;;;20.00;99.90;;;;;;5089049;28;20033;-79
2023/09/10 01:48:28;;;;;;;18.42;9.60;;;20.00;99.90;;;;;;5089445;28;20051;-80
2023/09/10 01:50:54;;;;;;;14.52;8.55;;;20.00;99.90;;;;;;5091283;28;20036;-78
2023/09/10 01:53:21;;;;;;;17.45;9.48;;;20.00;99.90;;;;;;5075383;28;20056;-80
2023/09/10 01:55:47;;;;;;;15.68;9.32;;;20.00;99.90;;;;;;5091572;28;20470;-78
2023/09/10 01:58:15;;;;;;;16.00;8.48;;;20.00;99.90;;;;;;5079535;28;20109;-80
2023/09/10 02:00:41;;;;;;;16.60;8.95;;;20.00;99.90;;;;;;5095460;28;20051;-81
2023/09/10 02:03:08;;;;;;;18.33;9.15;;;19.90;99.90;;;;;;5092178;28;20094;-79
2023/09/10 02:05:35;;;;;;;18.48;9.27;;;19.90;99.90;;;;;;5076306;28;20497;-80
2023/09/10 02:08:03;;;;;;;17.13;9.63;;;19.90;99.90;;;;;;5061475;28;20127;-78
2023/09/10 02:10:30;;;;;;;23.85;10.52;;;19.80;99.90;;;;;;5095961;28;20036;-80
2023/09/10 02:12:56;;;;;;;17.60;9.30;;;19.80;99.90;;;;;;5096101;28;20455;-79
2023/09/10 02:15:23;;;;;;;18.75;9.27;;;19.70;99.90;;;;;;5095337;28;20036;-80
2023/09/10 02:17:50;;;;;;;15.52;9.10;;;19.70;99.90;;;;;;5083613;28;20052;-79
2023/09/10 02:20:16;;;;;;;20.85;9.63;;;19.70;99.90;;;;;;5089692;28;20036;-80
2023/09/10 02:22:43;;;;;;;18.95;9.07;;;19.70;99.90;;;;;;5071653;28;20044;-79
2023/09/10 02:25:10;;;;;;;15.52;8.73;;;19.70;99.90;;;;;;5090691;28;20044;-80
2023/09/10 02:27:38;;;;;;;17.90;9.13;;;19.70;99.90;;;;;;5084923;28;20441;-80
2023/09/10 02:30:06;;;;;;;21.83;9.88;;;19.60;99.90;;;;;;5081864;28;20032;-78
2023/09/10 02:32:32;;;;;;;15.63;8.43;;;19.70;99.90;;;;;;5095843;28;20040;-78
2023/09/10 02:34:59;;;;;;;17.65;9.35;;;19.70;99.90;;;;;;5081378;28;20073;-80
2023/09/10 02:37:26;;;;;;;18.25;9.15;;;19.60;99.90;;;;;;5096596;28;20044;-79
2023/09/10 02:39:53;;;;;;;20.45;10.18;;;19.60;99.90;;;;;;5096477;28;20401;-79
2023/09/10 02:42:20;;;;;;;16.45;9.07;;;19.60;99.90;;;;;;5089054;28;20048;-79
2023/09/10 02:44:47;;;;;;;16.42;9.43;;;19.60;99.90;;;;;;5075143;28;20047;-79
2023/09/10 02:47:13;;;;;;;15.82;8.27;;;19.50;99.90;;;;;;5074345;28;20037;-78
2023/09/10 02:49:40;;;;;;;18.63;8.57;;;19.50;99.90;;;;;;5085154;28;20047;-80
2023/09/10 02:52:07;;;;;;;16.63;7.95;;;19.50;99.90;;;;;;5082776;28;20052;-79
2023/09/10 02:54:34;;;;;;;18.30;9.18;;;19.50;99.90;;;;;;5093735;28;20064;-79
2023/09/10 02:57:00;;;;;;;23.80;9.60;;;19.40;99.90;;;;;;5096060;28;20052;-81
2023/09/10 02:59:27;;;;;;;17.88;8.85;;;19.50;99.90;;;;;;5080973;28;20068;-80
2023/09/10 03:01:54;;;;;;;16.90;8.60;;;19.50;99.90;;;;;;5093885;28;20055;-81
2023/09/10 03:04:20;;;;;;;18.98;8.57;;;19.40;99.90;;;;;;5080597;28;20068;-80
2023/09/10 03:06:47;;;;;;;15.73;8.52;;;19.40;99.90;;;;;;5088177;28;20051;-80
2023/09/10 03:09:14;;;;;;;18.50;9.25;;;19.40;99.90;;;;;;5074616;28;20498;-80
2023/09/10 03:11:42;;;;;;;14.75;8.85;;;19.30;99.90;;;;;;5072142;28;20209;-80
2023/09/10 03:14:10;;;;;;;15.23;8.63;;;19.20;99.90;;;;;;5073941;28;20045;-80
2023/09/10 03:16:38;;;;;;;18.42;8.60;;;19.10;99.90;;;;;;5078273;28;20044;-80
2023/09/10 03:19:08;;;;;;;15.88;8.48;;;19.00;99.90;;;;;;5094996;28;20131;-81
2023/09/10 03:21:34;;;;;;;16.40;9.07;;;19.00;99.90;;;;;;5074259;28;20052;-79
2023/09/10 03:24:01;;;;;;;18.52;8.10;;;18.90;99.90;;;;;;5057933;28;20036;-80
2023/09/10 03:26:28;;;;;;;13.93;8.27;;;19.00;99.90;;;;;;5074777;28;20476;-81
2023/09/10 03:28:55;;;;;;;19.10;7.85;;;19.00;99.90;;;;;;5074599;28;20071;-80
2023/09/10 03:31:22;;;;;;;13.50;7.57;;;19.00;99.90;;;;;;5073968;28;20379;-79
2023/09/10 03:33:48;;;;;;;15.48;7.88;;;19.00;99.90;;;;;;5072774;28;20135;-78
2023/09/10 03:36:15;;;;;;;16.20;8.18;;;19.00;99.90;;;;;;5086047;28;20048;-80
2023/09/10 03:38:42;;;;;;;13.13;7.82;;;19.10;99.90;;;;;;5077467;28;20044;-78
2023/09/10 03:41:09;;;;;;;14.40;7.55;;;19.10;99.90;;;;;;5083025;28;20044;-79
2023/09/10 03:43:36;;;;;;;15.85;8.57;;;19.00;99.90;;;;;;5080014;28;20044;-80
2023/09/10 03:46:02;;;;;;;13.48;8.20;;;19.00;99.90;;;;;;5094283;28;20072;-80
2023/09/10 03:48:30;;;;;;;15.10;8.25;;;19.00;99.90;;;;;;5093106;28;20050;-80
2023/09/10 03:50:57;;;;;;;18.02;9.43;;;19.00;99.90;;;;;;5073833;28;20380;-78
2023/09/10 03:53:23;;;;;;;15.38;7.97;;;19.00;99.90;;;;;;5063552;28;20102;-80
2023/09/10 03:55:50;;;;;;;14.95;7.70;;;19.00;99.90;;;;;;5042670;28;20056;-80
2023/09/10 03:58:17;;;;;;;21.20;8.45;;;19.00;99.90;;;;;;5027634;28;20044;-80
2023/09/10 04:00:44;;;;;;;14.70;8.00;;;19.00;99.90;;;;;;5043249;28;20048;-80
2023/09/10 04:03:11;;;;;;;18.80;8.68;;;19.00;99.90;;;;;;5059668;28;20040;-79
2023/09/10 04:05:38;;;;;;;17.10;8.52;;;19.00;99.90;;;;;;5056986;28;20048;-79
2023/09/10 04:08:07;;;;;;;17.83;8.45;;;18.90;99.90;;;;;;5039885;28;20028;-78
2023/09/10 04:10:34;;;;;;;18.20;9.18;;;18.90;99.90;;;;;;5046972;28;20091;-80
2023/09/10 04:13:00;;;;;;;22.95;9.65;;;18.90;99.90;;;;;;5056373;28;20048;-78
2023/09/10 04:15:27;;;;;;;18.88;9.43;;;18.90;99.90;;;;;;5056174;28;20041;-79
2023/09/10 04:17:54;;;;;;;18.13;10.25;;;18.90;99.90;;;;;;5074518;28;20536;-80
2023/09/10 04:20:21;;;;;;;19.70;9.35;;;18.90;99.90;;;;;;5056469;28;20060;-81
2023/09/10 04:22:48;;;;;;;19.42;9.68;;;18.90;99.90;;;;;;5044736;28;20044;-80
2023/09/10 04:25:15;;;;;;;17.73;8.90;;;18.80;99.90;;;;;;5055934;28;20051;-80
2023/09/10 04:27:42;;;;;;;15.40;8.55;;;18.80;99.90;;;;;;5045249;28;20072;-79
2023/09/10 04:30:09;;;;;;;17.27;7.80;;;18.80;99.90;;;;;;5040053;28;20049;-81
2023/09/10 04:32:36;;;;;;;16.05;8.18;;;18.80;99.90;;;;;;5056639;28;20063;-80
2023/09/10 04:35:04;;;;;;;17.25;8.68;;;18.70;99.90;;;;;;5041844;28;20546;-80
2023/09/10 04:37:34;;;;;;;15.98;8.50;;;18.70;99.90;;;;;;5048808;28;20512;-79
2023/09/10 04:40:01;;;;;;;14.98;8.25;;;18.70;99.90;;;;;;5036541;28;20132;-80
2023/09/10 04:42:28;;;;;;;17.95;8.45;;;18.70;99.90;;;;;;5036814;28;20103;-80
2023/09/10 04:44:55;;;;;;;15.13;8.23;;;18.60;99.90;;;;;;5046513;28;20456;-81
2023/09/10 04:47:22;;;;;;;17.27;8.38;;;18.60;99.90;;;;;;5054886;28;20094;-80
2023/09/10 04:49:48;;;;;;;18.88;9.38;;;18.60;99.90;;;;;;5065959;28;20459;-80
2023/09/10 04:52:15;;;;;;;19.63;9.45;;;18.50;99.90;;;;;;5073790;28;20052;-81
2023/09/10 04:54:42;;;;;;;17.55;8.45;;;18.40;99.90;;;;;;5096882;28;20515;-81
2023/09/10 04:57:09;;;;;;;20.02;8.90;;;18.40;99.90;;;;;;5098501;28;20055;-79
2023/09/10 04:59:36;;;;;;;19.00;9.35;;;18.40;99.90;;;;;;5067011;28;20044;-80
2023/09/10 05:02:02;;;;;;;21.30;9.35;;;18.40;99.90;;;;;;5079620;28;20075;-81
2023/09/10 05:04:29;;;;;;;21.38;9.93;;;18.30;99.90;;;;;;5098003;28;20051;-81
2023/09/10 05:06:57;;;;;;;20.73;8.98;;;18.30;99.90;;;;;;5088771;28;20063;-79
2023/09/10 05:09:23;;;;;;;15.88;8.60;;;18.30;99.90;;;;;;5091853;28;20115;-78
2023/09/10 05:11:51;;;;;;;21.27;8.80;;;18.20;99.90;;;;;;5080335;28;20043;-79
2023/09/10 05:14:18;;;;;;;15.77;8.13;;;18.20;99.90;;;;;;5066858;28;20110;-80
2023/09/10 05:16:44;;;;;;;15.60;8.05;;;18.20;99.90;;;;;;5097359;28;20474;-80
2023/09/10 05:19:12;;;;;;;18.00;9.10;;;18.20;99.90;;;;;;5096872;28;20055;-80
2023/09/10 05:21:39;;;;;;;19.42;9.63;;;18.20;99.90;;;;;;5093959;28;20044;-79
2023/09/10 05:24:06;;;;;;;19.13;9.80;;;18.20;99.90;;;;;;5080469;28;20044;-79
2023/09/10 05:26:33;;;;;;;30.05;10.88;;;18.20;99.90;;;;;;5097159;28;20051;-80
2023/09/10 05:29:00;;;;;;;28.17;13.43;;;18.30;99.90;;;;;;5096061;28;20140;-79
2023/09/10 05:31:27;;;;;;;22.77;11.07;;;18.20;99.90;;;;;;5097711;28;20039;-79
2023/09/10 05:33:54;;;;;;;24.13;11.23;;;18.30;99.90;;;;;;5092474;28;20041;-80
2023/09/10 05:36:21;;;;;;;20.67;11.35;;;18.30;99.90;;;;;;5089109;28;20105;-78
2023/09/10 05:38:52;;;;;;;25.75;13.57;;;18.30;99.90;;;;;;5082773;28;20043;-78
2023/09/10 05:41:19;;;;;;;31.98;15.38;;;18.40;99.90;;;;;;5095575;28;20398;-80
2023/09/10 05:43:46;;;;;;;39.72;17.63;;;18.40;99.90;;;;;;5078958;28;20050;-79
2023/09/10 05:46:12;;;;;;;32.53;16.98;;;18.40;99.90;;;;;;5076454;28;20106;-80
2023/09/10 05:48:39;;;;;;;33.90;17.30;;;18.40;99.90;;;;;;5089567;28;20481;-81
2023/09/10 05:51:07;;;;;;;35.88;18.00;;;18.40;99.90;;;;;;5084108;28;20040;-80
2023/09/10 05:53:34;;;;;;;38.10;18.70;;;18.50;99.90;;;;;;5059052;28;20414;-81
2023/09/10 05:56:01;;;;;;;32.97;16.73;;;18.50;99.90;;;;;;5057454;28;20106;-80
2023/09/10 05:58:28;;;;;;;33.97;17.50;;;18.50;99.90;;;;;;5047841;28;20044;-80
2023/09/10 06:00:54;;;;;;;38.00;17.50;;;18.50;99.90;;;;;;5057128;28;20443;-79
2023/09/10 06:03:21;;;;;;;36.97;18.52;;;18.50;99.90;;;;;;5052994;28;20053;-80
2023/09/10 06:05:48;;;;;;;33.20;17.10;;;18.60;99.90;;;;;;5039244;28;20166;-80
2023/09/10 06:08:16;;;;;;;33.25;15.60;;;18.60;99.90;;;;;;5049371;28;20049;-80
2023/09/10 06:10:42;;;;;;;38.90;15.77;;;18.60;99.90;;;;;;5038723;28;20048;-78
2023/09/10 06:13:09;;;;;;;34.15;15.93;;;18.60;99.90;;;;;;5071235;28;20041;-79
2023/09/10 06:15:36;;;;;;;45.10;19.67;;;18.60;99.90;;;;;;5031308;28;20041;-80
2023/09/10 06:18:04;;;;;;;50.78;22.40;;;18.60;99.90;;;;;;5057414;28;20094;-78
2023/09/10 06:20:30;;;;;;;40.58;19.85;;;18.60;99.90;;;;;;5055961;28;20044;-79
2023/09/10 06:22:58;;;;;;;37.45;19.40;;;18.70;99.90;;;;;;5053391;28;20406;-79
2023/09/10 06:25:25;;;;;;;44.30;21.73;;;18.80;99.90;;;;;;5059137;28;20049;-79
2023/09/10 06:27:52;;;;;;;41.45;20.80;;;18.80;99.90;;;;;;5075777;28;20106;-78
2023/09/10 06:30:19;;;;;;;44.58;22.52;;;18.80;99.90;;;;;;5061244;28;20124;-79
2023/09/10 06:32:45;;;;;;;52.42;23.23;;;18.80;99.90;;;;;;5059519;28;20425;-79
2023/09/10 06:35:12;;;;;;;60.42;28.88;;;18.90;99.90;;;;;;5057805;28;20045;-78
2023/09/10 06:37:40;;;;;;;55.55;27.05;;;19.00;99.90;;;;;;5059038;28;20049;-77
2023/09/10 06:40:07;;;;;;;55.15;26.95;;;19.00;99.90;;;;;;5065811;28;20047;-78
2023/09/10 06:42:36;;;;;;;56.28;27.58;;;19.10;99.90;;;;;;5051660;28;20056;-80
2023/09/10 06:45:17;;;;;;;58.03;31.05;;;19.20;99.90;;;;;;5040197;28;20079;-80
2023/09/10 06:47:46;;;;;;;64.22;30.77;;;19.30;99.90;;;;;;5069686;28;20497;-80
2023/09/10 06:50:12;;;;;;;67.28;31.27;;;19.40;99.90;;;;;;5065249;28;20041;-78
2023/09/10 06:52:39;;;;;;;64.95;31.42;;;19.40;99.90;;;;;;5076053;28;20049;-79
2023/09/10 06:55:06;;;;;;;67.45;31.65;;;19.50;99.90;;;;;;5075222;28;20079;-79
2023/09/10 07:00:02;;;;;;;67.32;33.75;;;19.60;99.90;;;;;;5073507;28;20111;-79
2023/09/10 07:02:29;;;;;;;71.07;34.50;;;19.70;99.90;;;;;;5051330;28;20146;-81
2023/09/10 07:04:56;;;;;;;70.05;36.25;;;19.70;99.90;;;;;;5069554;28;20479;-80
2023/09/10 07:07:22;;;;;;;72.72;34.47;;;19.80;99.90;;;;;;5066659;28;20037;-80
2023/09/10 07:09:49;;;;;;;70.05;33.88;;;19.80;99.90;;;;;;5076905;28;20046;-80
2023/09/10 07:12:16;;;;;;;68.05;34.30;;;19.90;99.90;;;;;;5075020;28;20037;-81
2023/09/10 07:14:44;;;;;;;65.82;31.73;;;20.00;99.90;;;;;;5066177;28;20040;-80
2023/09/10 07:17:11;;;;;;;66.00;30.65;;;20.10;99.90;;;;;;5066977;28;20487;-80
2023/09/10 07:19:38;;;;;;;59.53;30.85;;;20.30;99.90;;;;;;5055851;28;20056;-81
2023/09/10 07:22:04;;;;;;;56.42;28.05;;;20.40;99.90;;;;;;5061993;28;20094;-80
2023/09/10 07:24:31;;;;;;;66.50;33.78;;;20.50;99.90;;;;;;5075347;28;20430;-78
2023/09/10 07:26:58;;;;;;;69.72;34.15;;;20.70;99.90;;;;;;5056790;28;20042;-79
2023/09/10 07:29:25;;;;;;;72.25;35.40;;;21.00;99.90;;;;;;5064378;28;20497;-79
2023/09/10 07:31:52;;;;;;;69.15;35.88;;;21.20;99.90;;;;;;5040717;28;20047;-81
2023/09/10 07:34:18;;;;;;;70.82;37.92;;;21.40;99.90;;;;;;5074633;28;20470;-81
2023/09/10 07:36:46;;;;;;;83.15;37.58;;;21.50;99.90;;;;;;5073337;28;20040;-81
2023/09/10 07:41:58;;;;;;;66.78;39.55;;;21.70;99.90;;;;;;5039871;28;20053;-83
2023/09/10 07:44:25;;;;;;;73.13;37.50;;;21.90;99.90;;;;;;5054961;28;20405;-81
2023/09/10 07:46:52;;;;;;;71.75;43.55;;;22.00;99.90;;;;;;5044737;28;20089;-81
2023/09/10 07:49:21;;;;;;;76.25;37.47;;;22.20;99.90;;;;;;5037545;28;20087;-83
2023/09/10 07:51:48;;;;;;;65.65;36.13;;;22.40;99.90;;;;;;5054322;28;20045;-82
2023/09/10 07:54:15;;;;;;;67.00;42.83;;;22.50;99.90;;;;;;5062376;28;20045;-80
2023/09/10 07:56:41;;;;;;;71.93;40.55;;;22.70;99.90;;;;;;5066620;28;20086;-82
2023/09/10 07:59:11;;;;;;;68.88;40.15;;;22.80;99.90;;;;;;5037508;28;20049;-81
2023/09/10 08:01:38;;;;;;;66.90;38.00;;;23.00;99.90;;;;;;5056134;28;20040;-82
2023/09/10 08:04:05;;;;;;;69.88;48.35;;;23.20;99.90;;;;;;5062217;28;20043;-80
2023/09/10 08:06:32;;;;;;;65.13;39.65;;;23.30;99.90;;;;;;5020539;28;20529;-80
2023/09/10 08:08:59;;;;;;;70.00;40.72;;;23.30;99.90;;;;;;5044417;28;20135;-82
2023/09/10 08:11:26;;;;;;;70.55;41.67;;;23.50;99.90;;;;;;5061328;28;20368;-80
2023/09/10 08:13:53;;;;;;;63.88;37.35;;;23.50;99.90;;;;;;5053727;28;20033;-82
2023/09/10 08:16:20;;;;;;;60.55;37.03;;;23.60;99.90;;;;;;5068176;28;20044;-81
2023/09/10 08:18:49;;;;;;;63.03;39.17;;;23.70;99.90;;;;;;5037056;28;20037;-81
2023/09/10 08:21:15;;;;;;;68.75;40.35;;;23.80;99.90;;;;;;5053512;28;20048;-82
2023/09/10 08:23:43;;;;;;;67.85;40.67;;;23.90;99.90;;;;;;5052411;28;20040;-82
2023/09/10 08:26:09;;;;;;;67.43;40.35;;;24.00;99.90;;;;;;5048831;28;20099;-82
2023/09/10 08:28:38;;;;;;;67.63;36.65;;;24.00;99.90;;;;;;5052098;28;20048;-85
2023/09/10 08:31:05;;;;;;;65.10;43.92;;;24.10;99.90;;;;;;5053959;28;20041;-83
2023/09/10 08:33:32;;;;;;;66.57;39.90;;;24.20;99.90;;;;;;5070747;28;20045;-85
2023/09/10 08:35:58;;;;;;;69.93;43.28;;;24.30;99.90;;;;;;5064463;28;20041;-84
2023/09/10 08:38:26;;;;;;;58.88;37.45;;;24.40;99.90;;;;;;5040187;28;20074;-84
2023/09/10 08:40:52;;;;;;;60.78;50.97;;;24.50;99.90;;;;;;5048346;28;20041;-83
2023/09/10 08:43:19;;;;;;;63.00;52.75;;;24.70;99.90;;;;;;5050273;28;20041;-84
2023/09/10 08:45:46;;;;;;;64.63;38.63;;;24.80;99.90;;;;;;5059947;28;20128;-85
2023/09/10 08:48:13;;;;;;;62.40;47.67;;;24.90;99.90;;;;;;5056254;28;20045;-87
2023/09/10 08:50:39;;;;;;;56.17;48.10;;;25.00;99.90;;;;;;5039727;28;20045;-87
2023/09/10 08:53:11;;;;;;;60.00;48.35;;;25.20;99.90;;;;;;5050361;28;20041;-88
2023/09/10 08:55:43;;;;;;;55.03;46.50;;;25.20;99.90;;;;;;5086313;28;20051;-86
2023/09/10 09:02:26;;;;;;;52.28;45.05;;;25.50;99.90;;;;;;5035429;28;20049;-85
2023/09/10 09:08:24;;;;;;;48.03;40.22;;;26.00;99.90;;;;;;4919354;29;20122;-86
2023/09/10 09:21:29;;;;;;;41.92;33.38;;;26.60;99.90;;;;;;4891147;29;20051;-86
2023/09/10 09:28:31;;;;;;;40.78;30.40;;;27.00;99.90;;;;;;4891045;29;20495;-86
2023/09/10 09:34:30;;;;;;;34.15;28.25;;;27.40;99.90;;;;;;4860031;29;20037;-87
2023/09/10 09:37:01;;;;;;;35.72;28.30;;;27.50;99.90;;;;;;4862932;29;20368;-86
2023/09/10 09:39:28;;;;;;;37.00;27.00;;;27.70;99.90;;;;;;4862904;29;20144;-85
2023/09/10 09:41:55;;;;;;;38.65;26.85;;;27.70;99.90;;;;;;4849123;29;20140;-83
2023/09/10 09:44:22;;;;;;;37.42;26.15;;;27.80;99.90;;;;;;4925681;29;20420;-83
2023/09/10 09:46:49;;;;;;;32.83;24.10;;;27.90;99.90;;;;;;4950263;29;20054;-83
2023/09/10 09:49:18;;;;;;;32.30;26.20;;;28.10;99.90;;;;;;4941102;28;20055;-81
2023/09/10 09:51:45;;;;;;;30.67;26.23;;;28.30;99.90;;;;;;4940214;29;20121;-83
2023/09/10 09:54:11;;;;;;;30.73;23.45;;;28.40;99.90;;;;;;4942802;29;20047;-83
2023/09/10 09:56:38;;;;;;;35.60;24.80;;;28.40;99.90;;;;;;4972452;28;20066;-83
2023/09/10 10:01:51;;;;;;;25.20;19.30;;;28.50;99.90;;;;;;4975225;28;20054;-84
2023/09/10 10:04:18;;;;;;;31.38;21.33;;;28.60;99.90;;;;;;4979518;28;20133;-83
2023/09/10 10:06:45;;;;;;;27.95;20.75;;;28.60;99.90;;;;;;4978129;28;20054;-84
2023/09/10 10:10:18;;;;;;;27.23;20.15;;;28.70;99.90;;;;;;5067523;28;20129;-83
2023/09/10 10:12:16;;;;;;;24.92;19.45;;;28.90;99.90;;;;;;5085044;28;20074;-84
2023/09/10 10:14:43;;;;;;;24.75;19.63;;;29.20;99.90;;;;;;5091482;28;20031;-89
2023/09/10 10:17:11;;;;;;;27.00;18.10;;;29.40;99.90;;;;;;5095540;28;20051;-83
2023/09/10 10:19:38;;;;;;;23.77;17.60;;;29.50;99.90;;;;;;5080743;28;20044;-83
2023/09/10 10:22:05;;;;;;;27.13;19.27;;;29.80;99.90;;;;;;5082529;28;20424;-87
2023/09/10 10:24:33;;;;;;;25.60;17.42;;;30.00;99.90;;;;;;5095745;28;20427;-86
2023/09/10 10:26:59;;;;;;;32.22;19.92;;;30.20;99.90;;;;;;5078247;28;20040;-81
2023/09/10 10:29:26;;;;;;;27.50;20.48;;;30.20;99.90;;;;;;5095931;28;20371;-81
2023/09/10 10:31:53;;;;;;;26.95;19.27;;;30.40;99.90;;;;;;5082082;28;20040;-81
2023/09/10 10:34:20;;;;;;;25.40;19.83;;;30.60;99.90;;;;;;5081481;28;20036;-82
2023/09/10 10:36:46;;;;;;;26.67;19.10;;;30.70;99.90;;;;;;5076272;28;20442;-82
2023/09/10 10:39:15;;;;;;;25.63;18.92;;;30.80;99.90;;;;;;5075277;28;20072;-81
2023/09/10 10:41:42;;;;;;;22.30;15.32;;;31.00;99.90;;;;;;5074602;28;20529;-81
2023/09/10 10:44:09;;;;;;;20.75;13.85;;;31.50;99.90;;;;;;5090036;28;20097;-81
2023/09/10 10:46:35;;;;;;;21.92;11.75;;;31.70;99.90;;;;;;5083040;28;20421;-80
2023/09/10 10:49:03;;;;;;;19.83;11.23;;;31.60;99.90;;;;;;5094985;28;20367;-80
2023/09/10 10:51:29;;;;;;;22.52;12.25;;;31.40;99.90;;;;;;5075500;28;20048;-81
2023/09/10 10:54:15;;;;;;;22.75;9.70;;;31.40;99.90;;;;;;5069430;28;20033;-81
2023/09/10 10:56:41;;;;;;;23.88;7.50;;;31.70;99.90;;;;;;5063672;28;20041;-81
2023/09/10 10:59:09;;;;;;;15.88;6.47;;;32.20;99.90;;;;;;5075678;28;20072;-81
2023/09/10 11:01:36;;;;;;;14.57;6.25;;;32.50;99.90;;;;;;5061396;28;20037;-81
2023/09/10 11:04:03;;;;;;;15.43;6.00;;;32.70;99.90;;;;;;5045809;28;20067;-81
2023/09/10 11:06:30;;;;;;;16.60;6.35;;;33.00;99.90;;;;;;5052200;28;20056;-81
2023/09/10 11:08:58;;;;;;;10.60;5.82;;;33.20;99.90;;;;;;5055030;28;20029;-81
2023/09/10 11:11:25;;;;;;;13.25;6.10;;;33.60;99.90;;;;;;5037845;28;20079;-81
2023/09/10 11:13:51;;;;;;;20.23;6.50;;;34.00;99.90;;;;;;5054532;28;20071;-81
2023/09/10 11:16:18;;;;;;;15.85;6.28;;;34.30;99.90;;;;;;5069443;28;20490;-81
2023/09/10 11:18:46;;;;;;;14.82;6.00;;;34.40;99.90;;;;;;5038125;28;20341;-81
2023/09/10 11:21:13;;;;;;;15.60;5.78;;;34.20;99.90;;;;;;5021056;28;20091;-81
2023/09/10 11:23:40;;;;;;;11.65;5.47;;;33.80;99.90;;;;;;5069087;28;20045;-81
2023/09/10 11:26:07;;;;;;;24.17;6.32;;;33.30;99.90;;;;;;5050089;28;20036;-81
2023/09/10 11:28:35;;;;;;;13.45;5.45;;;33.00;99.90;;;;;;5060224;28;20046;-81
2023/09/10 11:31:02;;;;;;;14.95;6.05;;;32.70;99.90;;;;;;5057939;28;20041;-81
2023/09/10 11:33:29;;;;;;;16.95;6.15;;;32.80;99.90;;;;;;5059908;28;20131;-81
2023/09/10 11:35:58;;;;;;;18.20;5.85;;;32.90;99.90;;;;;;5075046;28;20132;-81
2023/09/10 11:38:25;;;;;;;13.60;5.68;;;33.50;99.90;;;;;;5043375;28;20110;-81
2023/09/10 11:40:51;;;;;;;14.23;5.82;;;33.90;99.90;;;;;;5074334;28;20379;-81
2023/09/10 11:43:18;;;;;;;15.90;5.78;;;34.20;99.90;;;;;;5057269;28;20131;-81
2023/09/10 11:45:45;;;;;;;9.80;5.28;;;34.40;99.90;;;;;;5060711;28;20045;-81
2023/09/10 11:48:13;;;;;;;14.13;5.53;;;34.50;99.90;;;;;;5062056;28;20111;-82
2023/09/10 11:50:40;;;;;;;10.27;5.00;;;35.00;99.90;;;;;;5041675;28;20044;-81
2023/09/10 11:53:09;;;;;;;12.98;5.03;;;35.40;99.90;;;;;;5050938;28;20053;-81
2023/09/10 11:55:39;;;;;;;16.38;4.88;;;35.70;99.90;;;;;;5036754;28;20072;-81
2023/09/10 11:58:05;;;;;;;11.77;4.97;;;36.00;99.90;;;;;;5055808;28;20036;-81
2023/09/10 12:00:32;;;;;;;10.80;4.53;;;36.00;99.90;;;;;;5045428;28;20525;-81
2023/09/10 12:02:59;;;;;;;13.48;5.30;;;36.10;99.90;;;;;;5068503;28;20055;-81
2023/09/10 12:05:27;;;;;;;15.45;5.35;;;36.10;99.90;;;;;;5047069;28;20113;-82
2023/09/10 12:08:01;;;;;;;12.23;4.78;;;36.20;99.90;;;;;;5054692;28;20032;-82
2023/09/10 12:10:28;;;;;;;14.25;4.90;;;36.10;99.90;;;;;;5037214;28;20048;-81
2023/09/10 12:12:56;;;;;;;15.77;4.35;;;35.90;99.90;;;;;;5034425;28;20106;-81
2023/09/10 12:15:23;;;;;;;11.38;4.50;;;36.00;99.90;;;;;;5044325;28;20044;-82
2023/09/10 12:17:50;;;;;;;9.93;3.92;;;36.00;99.90;;;;;;5040434;28;20450;-81
2023/09/10 12:20:18;;;;;;;14.80;4.50;;;36.00;99.90;;;;;;5073599;28;20347;-81
2023/09/10 12:22:45;;;;;;;12.35;4.25;;;35.70;99.90;;;;;;5074741;28;20047;-81
2023/09/10 12:25:12;;;;;;;11.15;4.13;;;35.40;99.90;;;;;;5038799;28;20049;-81
2023/09/10 12:27:40;;;;;;;14.00;4.20;;;35.50;99.90;;;;;;5064238;28;20037;-81
2023/09/10 12:30:07;;;;;;;11.15;4.55;;;35.40;99.90;;;;;;5056648;28;20059;-81
2023/09/10 12:32:34;;;;;;;8.77;4.18;;;35.00;99.90;;;;;;5040683;28;20044;-81
2023/09/10 12:35:00;;;;;;;9.38;4.18;;;34.60;99.90;;;;;;5072646;28;20055;-81
2023/09/10 12:37:27;;;;;;;13.50;4.53;;;34.30;99.90;;;;;;5020608;28;20048;-81
2023/09/10 12:39:54;;;;;;;9.98;4.25;;;34.20;99.90;;;;;;5068055;28;20375;-82
2023/09/10 12:42:21;;;;;;;10.63;4.05;;;34.60;99.90;;;;;;5073580;28;20036;-81
2023/09/10 12:44:48;;;;;;;10.20;4.30;;;34.70;99.90;;;;;;5074507;28;20075;-82
2023/09/10 12:47:16;;;;;;;9.75;4.30;;;34.20;99.90;;;;;;5069389;28;20332;-82
2023/09/10 12:49:42;;;;;;;9.05;4.47;;;33.80;99.90;;;;;;5047517;28;20404;-81
2023/09/10 12:52:09;;;;;;;11.93;4.20;;;33.60;99.90;;;;;;5061240;28;20064;-81
2023/09/10 12:54:36;;;;;;;9.23;4.45;;;33.80;99.90;;;;;;5049556;28;20065;-81
2023/09/10 12:57:03;;;;;;;12.02;4.80;;;33.80;99.90;;;;;;5064648;28;20079;-81
2023/09/10 12:59:29;;;;;;;12.70;5.10;;;33.70;99.90;;;;;;5074975;28;20118;-81
2023/09/10 13:01:56;;;;;;;11.57;5.07;;;33.30;99.90;;;;;;5055578;28;20055;-81
2023/09/10 13:04:23;;;;;;;12.98;4.72;;;33.10;99.90;;;;;;5058750;28;20056;-81
2023/09/10 13:06:49;;;;;;;12.43;5.10;;;33.00;99.90;;;;;;5053128;28;20353;-81